sensor_id;sensor_type;location;lat;lon;timestamp;pressure;altitude;pressure_sealevel;temperature;humidity
72587;BME280;60621;49.576;11.024;2023-02-28T00:00:22;99241.63;;;0.07;61.05
72587;BME280;60621;49.576;11.024;2023-02-28T00:01:24;99247.31;;;0.04;60.77
72587;BME280;60621;49.576;11.024;2023-02-28T00:02:26;99240.56;;;0.08;61.20
72587;BME280;60621;49.576;11.024;2023-02-28T00:03:28;99241.34;;;0.08;61.36
72587;BME280;60621;49.576;11.024;2023-02-28T00:04:29;99244.72;;;0.04;60.91
72587;BME280;60621;49.576;11.024;2023-02-28T00:05:31;99237.22;;;0.07;61.01
72587;BME280;60621;49.576;11.024;2023-02-28T00:06:33;99242.41;;;0.07;60.92
72587;BME280;60621;49.576;11.024;2023-02-28T00:07:35;99239.81;;;0.07;61.00
72587;BME280;60621;49.576;11.024;2023-02-28T00:08:37;99241.34;;;0.03;60.87
72587;BME280;60621;49.576;11.024;2023-02-28T00:09:39;99235.66;;;0.06;61.31
72587;BME280;60621;49.576;11.024;2023-02-28T00:10:40;99236.69;;;0.05;60.77
72587;BME280;60621;49.576;11.024;2023-02-28T00:11:42;99237.22;;;0.02;60.79
72587;BME280;60621;49.576;11.024;2023-02-28T00:12:43;99237.22;;;0.02;61.13
72587;BME280;60621;49.576;11.024;2023-02-28T00:13:46;99238.00;;;-0.03;61.30
72587;BME280;60621;49.576;11.024;2023-02-28T00:14:49;99236.44;;;0.02;61.45
72587;BME280;60621;49.576;11.024;2023-02-28T00:15:59;99234.34;;;0.09;60.87
72587;BME280;60621;49.576;11.024;2023-02-28T00:17:00;99230.47;;;0.06;61.02
72587;BME280;60621;49.576;11.024;2023-02-28T00:18:02;99235.13;;;-0.01;61.50
72587;BME280;60621;49.576;11.024;2023-02-28T00:19:04;99236.97;;;-0.12;61.20
72587;BME280;60621;49.576;11.024;2023-02-28T00:20:06;99233.88;;;-0.09;61.39
72587;BME280;60621;49.576;11.024;2023-02-28T00:21:13;99233.31;;;-0.11;61.43
72587;BME280;60621;49.576;11.024;2023-02-28T00:22:17;99236.97;;;-0.12;61.23
72587;BME280;60621;49.576;11.024;2023-02-28T00:23:19;99231.78;;;-0.12;61.60
72587;BME280;60621;49.576;11.024;2023-02-28T00:24:20;99227.63;;;-0.08;61.50
72587;BME280;60621;49.576;11.024;2023-02-28T00:25:24;99229.47;;;-0.23;62.11
72587;BME280;60621;49.576;11.024;2023-02-28T00:26:26;99231.00;;;-0.17;62.01
72587;BME280;60621;49.576;11.024;2023-02-28T00:27:27;99228.16;;;-0.21;61.72
72587;BME280;60621;49.576;11.024;2023-02-28T00:28:29;99226.88;;;-0.18;61.95
72587;BME280;60621;49.576;11.024;2023-02-28T00:29:31;99229.19;;;-0.12;62.20
72587;BME280;60621;49.576;11.024;2023-02-28T00:30:32;99229.19;;;-0.07;61.72
72587;BME280;60621;49.576;11.024;2023-02-28T00:31:33;99227.13;;;-0.05;61.57
72587;BME280;60621;49.576;11.024;2023-02-28T00:32:35;99232.81;;;0.03;61.51
72587;BME280;60621;49.576;11.024;2023-02-28T00:33:37;99226.81;;;0.07;61.44
72587;BME280;60621;49.576;11.024;2023-02-28T00:34:39;99223.19;;;0.03;61.47
72587;BME280;60621;49.576;11.024;2023-02-28T00:35:40;99221.91;;;0.01;61.71
72587;BME280;60621;49.576;11.024;2023-02-28T00:36:42;99222.44;;;0.03;61.70
72587;BME280;60621;49.576;11.024;2023-02-28T00:37:47;99230.47;;;0.06;61.37
72587;BME280;60621;49.576;11.024;2023-02-28T00:38:49;99227.88;;;0.11;61.19
72587;BME280;60621;49.576;11.024;2023-02-28T00:39:51;99227.56;;;0.18;60.88
72587;BME280;60621;49.576;11.024;2023-02-28T00:40:53;99230.19;;;0.13;60.95
72587;BME280;60621;49.576;11.024;2023-02-28T00:41:54;99223.19;;;0.13;60.70
72587;BME280;60621;49.576;11.024;2023-02-28T00:42:56;99220.88;;;0.07;61.39
72587;BME280;60621;49.576;11.024;2023-02-28T00:43:57;99234.34;;;0.09;61.26
72587;BME280;60621;49.576;11.024;2023-02-28T00:44:59;99226.03;;;0.17;61.11
72587;BME280;60621;49.576;11.024;2023-02-28T00:46:01;99230.94;;;0.18;60.70
72587;BME280;60621;49.576;11.024;2023-02-28T00:47:03;99227.56;;;0.18;61.10
72587;BME280;60621;49.576;11.024;2023-02-28T00:48:05;99228.13;;;0.20;61.02
72587;BME280;60621;49.576;11.024;2023-02-28T00:49:07;99230.16;;;0.23;60.49
72587;BME280;60621;49.576;11.024;2023-02-28T00:50:09;99225.75;;;0.23;60.52
72587;BME280;60621;49.576;11.024;2023-02-28T00:51:11;99227.06;;;0.26;60.67
72587;BME280;60621;49.576;11.024;2023-02-28T00:52:12;99219.53;;;0.24;60.62
72587;BME280;60621;49.576;11.024;2023-02-28T00:53:14;99224.47;;;0.21;60.96
72587;BME280;60621;49.576;11.024;2023-02-28T00:54:16;99228.34;;;0.18;60.70
72587;BME280;60621;49.576;11.024;2023-02-28T00:55:18;99222.13;;;0.30;60.65
72587;BME280;60621;49.576;11.024;2023-02-28T00:56:20;99223.41;;;0.32;60.09
72587;BME280;60621;49.576;11.024;2023-02-28T00:57:21;99223.97;;;0.24;60.66
72587;BME280;60621;49.576;11.024;2023-02-28T00:58:23;99221.59;;;0.28;60.64
72587;BME280;60621;49.576;11.024;2023-02-28T00:59:25;99226.28;;;0.25;60.38
72587;BME280;60621;49.576;11.024;2023-02-28T01:00:27;99221.09;;;0.25;60.46
72587;BME280;60621;49.576;11.024;2023-02-28T01:01:28;99221.59;;;0.22;60.77
72587;BME280;60621;49.576;11.024;2023-02-28T01:02:30;99216.66;;;0.26;60.77
72587;BME280;60621;49.576;11.024;2023-02-28T01:03:32;99224.69;;;0.35;60.58
72587;BME280;60621;49.576;11.024;2023-02-28T01:04:34;99218.19;;;0.32;60.26
72587;BME280;60621;49.576;11.024;2023-02-28T01:05:35;99222.63;;;0.27;60.51
72587;BME280;60621;49.576;11.024;2023-02-28T01:06:37;99218.47;;;0.31;60.12
72587;BME280;60621;49.576;11.024;2023-02-28T01:07:38;99221.34;;;0.24;60.29
72587;BME280;60621;49.576;11.024;2023-02-28T01:08:40;99212.78;;;0.23;60.15
72587;BME280;60621;49.576;11.024;2023-02-28T01:09:42;99219.00;;;0.22;60.49
72587;BME280;60621;49.576;11.024;2023-02-28T01:10:43;99219.00;;;0.22;60.54
72587;BME280;60621;49.576;11.024;2023-02-28T01:11:45;99210.75;;;0.05;60.90
72587;BME280;60621;49.576;11.024;2023-02-28T01:12:46;99215.66;;;0.12;61.20
72587;BME280;60621;49.576;11.024;2023-02-28T01:13:48;99212.78;;;0.29;60.69
72587;BME280;60621;49.576;11.024;2023-02-28T01:14:49;99208.38;;;0.29;60.09
72587;BME280;60621;49.576;11.024;2023-02-28T01:15:53;99208.38;;;0.29;60.11
72587;BME280;60621;49.576;11.024;2023-02-28T01:16:55;99210.72;;;0.25;60.14
72587;BME280;60621;49.576;11.024;2023-02-28T01:17:57;99214.34;;;0.24;60.55
72587;BME280;60621;49.576;11.024;2023-02-28T01:18:59;99215.91;;;0.25;60.44
72587;BME280;60621;49.576;11.024;2023-02-28T01:20:01;99213.56;;;0.19;60.76
72587;BME280;60621;49.576;11.024;2023-02-28T01:21:07;99208.91;;;0.16;60.71
72587;BME280;60621;49.576;11.024;2023-02-28T01:22:08;99210.72;;;0.15;60.84
72587;BME280;60621;49.576;11.024;2023-02-28T01:23:10;99206.56;;;0.09;61.05
72587;BME280;60621;49.576;11.024;2023-02-28T01:24:13;99206.59;;;0.14;61.15
72587;BME280;60621;49.576;11.024;2023-02-28T01:25:15;99208.66;;;0.17;60.74
72587;BME280;60621;49.576;11.024;2023-02-28T01:26:19;99203.19;;;0.19;60.59
72587;BME280;60621;49.576;11.024;2023-02-28T01:27:21;99206.84;;;0.13;61.03
72587;BME280;60621;49.576;11.024;2023-02-28T01:28:22;99202.16;;;0.20;60.49
72587;BME280;60621;49.576;11.024;2023-02-28T01:29:24;99205.78;;;0.19;60.75
72587;BME280;60621;49.576;11.024;2023-02-28T01:30:25;99208.13;;;0.20;60.92
72587;BME280;60621;49.576;11.024;2023-02-28T01:31:27;99204.50;;;0.11;60.39
72587;BME280;60621;49.576;11.024;2023-02-28T01:32:29;99209.19;;;0.14;60.98
72587;BME280;60621;49.576;11.024;2023-02-28T01:33:31;99208.41;;;0.09;61.10
72587;BME280;60621;49.576;11.024;2023-02-28T01:34:32;99206.84;;;0.13;60.87
72587;BME280;60621;49.576;11.024;2023-02-28T01:35:35;99207.09;;;0.16;60.93
72587;BME280;60621;49.576;11.024;2023-02-28T01:36:36;99203.72;;;0.16;60.95
72587;BME280;60621;49.576;11.024;2023-02-28T01:37:38;99205.28;;;0.17;60.66
72587;BME280;60621;49.576;11.024;2023-02-28T01:38:40;99211.00;;;0.09;61.05
72587;BME280;60621;49.576;11.024;2023-02-28T01:39:41;99207.38;;;0.10;60.79
72587;BME280;60621;49.576;11.024;2023-02-28T01:40:43;99206.56;;;0.09;60.88
72587;BME280;60621;49.576;11.024;2023-02-28T01:41:44;99203.97;;;0.09;61.23
72587;BME280;60621;49.576;11.024;2023-02-28T01:42:46;99199.59;;;0.05;61.14
72587;BME280;60621;49.576;11.024;2023-02-28T01:45:02;99204.22;;;0.18;60.86
72587;BME280;60621;49.576;11.024;2023-02-28T01:46:04;99207.34;;;0.20;61.02
72587;BME280;60621;49.576;11.024;2023-02-28T01:47:06;99203.19;;;0.24;60.73
72587;BME280;60621;49.576;11.024;2023-02-28T01:48:08;99203.44;;;0.22;60.51
72587;BME280;60621;49.576;11.024;2023-02-28T01:49:14;99200.38;;;0.10;60.71
72587;BME280;60621;49.576;11.024;2023-02-28T01:50:19;99205.53;;;0.15;60.87
72587;BME280;60621;49.576;11.024;2023-02-28T01:51:26;99197.22;;;0.13;60.66
72587;BME280;60621;49.576;11.024;2023-02-28T01:52:30;99200.84;;;0.17;60.80
72587;BME280;60621;49.576;11.024;2023-02-28T01:53:37;99198.81;;;0.14;61.03
72587;BME280;60621;49.576;11.024;2023-02-28T01:54:40;99204.75;;;0.20;60.46
72587;BME280;60621;49.576;11.024;2023-02-28T01:55:45;99202.38;;;0.23;60.60
72587;BME280;60621;49.576;11.024;2023-02-28T01:56:55;99200.84;;;0.22;60.50
72587;BME280;60621;49.576;11.024;2023-02-28T01:58:00;99200.31;;;0.25;60.38
72587;BME280;60621;49.576;11.024;2023-02-28T01:59:04;99194.91;;;0.17;60.17
72587;BME280;60621;49.576;11.024;2023-02-28T02:00:11;99195.69;;;0.12;60.89
72587;BME280;60621;49.576;11.024;2023-02-28T02:01:15;99193.09;;;0.07;60.84
72587;BME280;60621;49.576;11.024;2023-02-28T02:02:23;99192.59;;;0.10;60.79
72587;BME280;60621;49.576;11.024;2023-02-28T02:03:25;99194.38;;;0.05;61.20
72587;BME280;60621;49.576;11.024;2023-02-28T02:04:33;99192.88;;;-0.07;61.14
72587;BME280;60621;49.576;11.024;2023-02-28T02:05:39;99193.66;;;-0.11;61.27
72587;BME280;60621;49.576;11.024;2023-02-28T02:06:43;99186.91;;;-0.07;61.33
72587;BME280;60621;49.576;11.024;2023-02-28T02:07:49;99193.91;;;-0.13;61.48
72587;BME280;60621;49.576;11.024;2023-02-28T02:08:51;99195.19;;;-0.05;61.50
72587;BME280;60621;49.576;11.024;2023-02-28T02:10:00;99191.81;;;-0.06;61.16
72587;BME280;60621;49.576;11.024;2023-02-28T02:11:03;99188.44;;;-0.01;61.47
72587;BME280;60621;49.576;11.024;2023-02-28T02:13:01;99187.94;;;0.02;61.03
72587;BME280;60621;49.576;11.024;2023-02-28T02:15:16;99190.78;;;-0.10;61.32
72587;BME280;60621;49.576;11.024;2023-02-28T02:18:04;99186.38;;;0.01;61.20
72587;BME280;60621;49.576;11.024;2023-02-28T02:20:46;99186.66;;;-0.16;61.29
72587;BME280;60621;49.576;11.024;2023-02-28T02:22:18;99183.00;;;-0.15;61.64
72587;BME280;60621;49.576;11.024;2023-02-28T02:25:12;99180.16;;;-0.08;61.12
72587;BME280;60621;49.576;11.024;2023-02-28T02:31:32;99172.66;;;-0.20;61.84
72587;BME280;60621;49.576;11.024;2023-02-28T02:35:17;99172.13;;;-0.12;61.58
72587;BME280;60621;49.576;11.024;2023-02-28T02:38:42;99176.50;;;-0.02;61.64
72587;BME280;60621;49.576;11.024;2023-02-28T02:39:22;99167.22;;;-0.13;61.56
72587;BME280;60621;49.576;11.024;2023-02-28T02:40:39;99179.13;;;-0.02;61.22
72587;BME280;60621;49.576;11.024;2023-02-28T02:41:51;99173.19;;;-0.23;62.08
72587;BME280;60621;49.576;11.024;2023-02-28T02:43:09;99175.78;;;-0.23;62.05
72587;BME280;60621;49.576;11.024;2023-02-28T02:44:23;99179.41;;;-0.14;62.18
72587;BME280;60621;49.576;11.024;2023-02-28T02:45:31;99175.22;;;-0.15;61.70
72587;BME280;60621;49.576;11.024;2023-02-28T02:46:39;99173.44;;;-0.09;61.65
72587;BME280;60621;49.576;11.024;2023-02-28T02:47:43;99168.75;;;-0.07;61.80
72587;BME280;60621;49.576;11.024;2023-02-28T02:48:46;99174.47;;;-0.15;61.61
72587;BME280;60621;49.576;11.024;2023-02-28T02:49:52;99176.03;;;-0.24;62.07
72587;BME280;60621;49.576;11.024;2023-02-28T02:50:57;99173.66;;;-0.11;61.72
72587;BME280;60621;49.576;11.024;2023-02-28T02:52:04;99175.22;;;-0.15;61.58
72587;BME280;60621;49.576;11.024;2023-02-28T02:53:08;99175.50;;;-0.11;61.42
72587;BME280;60621;49.576;11.024;2023-02-28T02:54:15;99166.66;;;-0.10;61.37
72587;BME280;60621;49.576;11.024;2023-02-28T02:55:20;99176.28;;;-0.11;61.77
72587;BME280;60621;49.576;11.024;2023-02-28T02:56:27;99173.16;;;-0.13;61.50
72587;BME280;60621;49.576;11.024;2023-02-28T02:57:34;99171.06;;;-0.06;61.59
72587;BME280;60621;49.576;11.024;2023-02-28T02:58:40;99173.41;;;-0.04;61.05
72587;BME280;60621;49.576;11.024;2023-02-28T02:59:43;99170.28;;;-0.06;61.49
72587;BME280;60621;49.576;11.024;2023-02-28T03:00:49;99172.91;;;-0.11;61.49
72587;BME280;60621;49.576;11.024;2023-02-28T03:01:55;99171.09;;;-0.11;61.52
72587;BME280;60621;49.576;11.024;2023-02-28T03:02:59;99173.16;;;-0.13;61.80
72587;BME280;60621;49.576;11.024;2023-02-28T03:04:14;99174.72;;;-0.07;61.52
72587;BME280;60621;49.576;11.024;2023-02-28T03:05:21;99170.28;;;-0.06;61.63
72587;BME280;60621;49.576;11.024;2023-02-28T03:06:27;99177.84;;;-0.05;61.41
72587;BME280;60621;49.576;11.024;2023-02-28T03:07:32;99183.53;;;-0.03;61.85
72587;BME280;60621;49.576;11.024;2023-02-28T03:08:38;99182.22;;;-0.05;61.90
72587;BME280;60621;49.576;11.024;2023-02-28T03:09:40;99170.81;;;-0.14;61.35
72587;BME280;60621;49.576;11.024;2023-02-28T03:10:48;99182.50;;;-0.17;62.30
72587;BME280;60621;49.576;11.024;2023-02-28T03:11:54;99176.81;;;-0.14;61.83
72587;BME280;60621;49.576;11.024;2023-02-28T03:13:07;99179.66;;;-0.15;61.80
72587;BME280;60621;49.576;11.024;2023-02-28T03:15:27;99173.66;;;-0.11;61.92
72587;BME280;60621;49.576;11.024;2023-02-28T03:18:08;99176.00;;;-0.14;61.60
72587;BME280;60621;49.576;11.024;2023-02-28T03:22:14;99175.25;;;-0.25;62.32
72587;BME280;60621;49.576;11.024;2023-02-28T03:23:35;99185.88;;;-0.21;62.03
72587;BME280;60621;49.576;11.024;2023-02-28T03:25:06;99178.88;;;-0.21;62.22
72587;BME280;60621;49.576;11.024;2023-02-28T03:26:29;99185.88;;;-0.21;62.03
72587;BME280;60621;49.576;11.024;2023-02-28T03:32:04;99174.75;;;-0.22;62.23
72587;BME280;60621;49.576;11.024;2023-02-28T03:33:21;99171.09;;;-0.16;62.17
72587;BME280;60621;49.576;11.024;2023-02-28T03:34:37;99168.22;;;-0.14;62.03
72587;BME280;60621;49.576;11.024;2023-02-28T03:35:47;99180.41;;;-0.15;61.87
72587;BME280;60621;49.576;11.024;2023-02-28T03:36:53;99170.59;;;-0.28;62.34
72587;BME280;60621;49.576;11.024;2023-02-28T03:38:04;99176.03;;;-0.24;62.15
72587;BME280;60621;49.576;11.024;2023-02-28T03:39:12;99175.50;;;-0.16;62.31
72587;BME280;60621;49.576;11.024;2023-02-28T03:40:19;99176.28;;;-0.16;62.14
72587;BME280;60621;49.576;11.024;2023-02-28T03:41:27;99182.22;;;-0.10;61.73
72587;BME280;60621;49.576;11.024;2023-02-28T03:42:31;99185.63;;;-0.05;61.80
72587;BME280;60621;49.576;11.024;2023-02-28T03:43:38;99177.28;;;-0.02;61.35
72587;BME280;60621;49.576;11.024;2023-02-28T03:44:46;99186.38;;;-0.14;61.97
72587;BME280;60621;49.576;11.024;2023-02-28T03:45:51;99178.38;;;-0.18;61.81
72587;BME280;60621;49.576;11.024;2023-02-28T03:47:00;99172.41;;;-0.18;62.23
72587;BME280;60621;49.576;11.024;2023-02-28T03:48:18;99182.00;;;-0.19;62.59
72587;BME280;60621;49.576;11.024;2023-02-28T03:49:28;99180.72;;;-0.27;62.45
72587;BME280;60621;49.576;11.024;2023-02-28T03:50:48;99178.09;;;-0.21;62.29
72587;BME280;60621;49.576;11.024;2023-02-28T03:51:52;99180.19;;;-0.39;62.60
72587;BME280;60621;49.576;11.024;2023-02-28T03:53:02;99180.19;;;-0.39;62.44
72587;BME280;60621;49.576;11.024;2023-02-28T03:54:12;99185.91;;;-0.37;63.13
72587;BME280;60621;49.576;11.024;2023-02-28T03:55:17;99180.72;;;-0.32;62.87
72587;BME280;60621;49.576;11.024;2023-02-28T03:56:54;99179.66;;;-0.20;62.11
72587;BME280;60621;49.576;11.024;2023-02-28T03:58:00;99175.00;;;-0.23;62.12
72587;BME280;60621;49.576;11.024;2023-02-28T03:59:26;99187.16;;;-0.24;62.61
72587;BME280;60621;49.576;11.024;2023-02-28T04:00:43;99180.72;;;-0.27;61.99
72587;BME280;60621;49.576;11.024;2023-02-28T04:01:48;99183.81;;;-0.30;62.25
72587;BME280;60621;49.576;11.024;2023-02-28T04:02:50;99179.66;;;-0.26;62.56
72587;BME280;60621;49.576;11.024;2023-02-28T04:03:53;99176.00;;;-0.19;62.30
72587;BME280;60621;49.576;11.024;2023-02-28T04:04:55;99181.75;;;-0.17;62.34
72587;BME280;60621;49.576;11.024;2023-02-28T04:05:57;99183.03;;;-0.20;62.37
72587;BME280;60621;49.576;11.024;2023-02-28T04:07:05;99189.22;;;-0.11;62.17
72587;BME280;60621;49.576;11.024;2023-02-28T04:08:07;99186.91;;;-0.12;61.83
72587;BME280;60621;49.576;11.024;2023-02-28T04:09:12;99186.16;;;-0.23;62.07
72587;BME280;60621;49.576;11.024;2023-02-28T04:10:13;99192.38;;;-0.39;62.67
72587;BME280;60621;49.576;11.024;2023-02-28T04:12:16;99191.88;;;-0.36;62.50
72587;BME280;60621;49.576;11.024;2023-02-28T04:13:17;99188.75;;;-0.33;62.52
72587;BME280;60621;49.576;11.024;2023-02-28T04:14:19;99190.31;;;-0.27;62.78
72587;BME280;60621;49.576;11.024;2023-02-28T04:15:20;99188.75;;;-0.23;62.73
72587;BME280;60621;49.576;11.024;2023-02-28T04:16:24;99189.25;;;-0.21;62.06
72587;BME280;60621;49.576;11.024;2023-02-28T04:17:35;99190.56;;;-0.18;61.91
72587;BME280;60621;49.576;11.024;2023-02-28T04:18:40;99191.56;;;-0.14;62.47
72587;BME280;60621;49.576;11.024;2023-02-28T04:19:43;99193.16;;;-0.13;61.98
72587;BME280;60621;49.576;11.024;2023-02-28T04:20:45;99189.78;;;-0.09;61.93
72587;BME280;60621;49.576;11.024;2023-02-28T04:21:51;99183.00;;;-0.10;61.79
72587;BME280;60621;49.576;11.024;2023-02-28T04:22:53;99187.41;;;-0.10;61.76
72587;BME280;60621;49.576;11.024;2023-02-28T04:23:55;99186.13;;;-0.13;61.91
72587;BME280;60621;49.576;11.024;2023-02-28T04:24:57;99187.94;;;-0.08;62.26
72587;BME280;60621;49.576;11.024;2023-02-28T04:25:58;99183.56;;;-0.23;61.79
72587;BME280;60621;49.576;11.024;2023-02-28T04:27:00;99189.53;;;-0.28;62.09
72587;BME280;60621;49.576;11.024;2023-02-28T04:28:02;99178.91;;;-0.31;62.39
72587;BME280;60621;49.576;11.024;2023-02-28T04:29:06;99185.13;;;-0.27;62.57
72587;BME280;60621;49.576;11.024;2023-02-28T04:30:09;99180.97;;;-0.23;62.44
72587;BME280;60621;49.576;11.024;2023-02-28T04:31:10;99186.66;;;-0.16;62.07
72587;BME280;60621;49.576;11.024;2023-02-28T04:32:12;99188.75;;;-0.28;62.13
72587;BME280;60621;49.576;11.024;2023-02-28T04:33:14;99184.34;;;-0.38;62.93
72587;BME280;60621;49.576;11.024;2023-02-28T04:34:15;99186.16;;;-0.33;62.78
72587;BME280;60621;49.576;11.024;2023-02-28T04:35:17;99182.25;;;-0.26;62.36
72587;BME280;60621;49.576;11.024;2023-02-28T04:36:19;99188.47;;;-0.21;62.56
72587;BME280;60621;49.576;11.024;2023-02-28T04:37:20;99190.81;;;-0.20;62.04
72587;BME280;60621;49.576;11.024;2023-02-28T04:38:22;99187.16;;;-0.24;62.64
72587;BME280;60621;49.576;11.024;2023-02-28T04:39:24;99182.78;;;-0.29;62.29
72587;BME280;60621;49.576;11.024;2023-02-28T04:40:25;99182.25;;;-0.26;61.92
72587;BME280;60621;49.576;11.024;2023-02-28T04:41:27;99189.25;;;-0.26;62.53
72587;BME280;60621;49.576;11.024;2023-02-28T04:42:32;99189.25;;;-0.26;62.34
72587;BME280;60621;49.576;11.024;2023-02-28T04:43:37;99183.81;;;-0.40;62.71
72587;BME280;60621;49.576;11.024;2023-02-28T04:44:38;99186.69;;;-0.52;62.91
72587;BME280;60621;49.576;11.024;2023-02-28T04:45:40;99183.84;;;-0.50;63.23
72587;BME280;60621;49.576;11.024;2023-02-28T04:46:42;99182.78;;;-0.34;63.32
72587;BME280;60621;49.576;11.024;2023-02-28T04:47:44;99184.31;;;-0.17;62.78
72587;BME280;60621;49.576;11.024;2023-02-28T04:48:45;99185.34;;;-0.29;62.70
72587;BME280;60621;49.576;11.024;2023-02-28T04:49:47;99187.97;;;-0.39;63.08
72587;BME280;60621;49.576;11.024;2023-02-28T04:50:48;99186.16;;;-0.33;62.83
72587;BME280;60621;49.576;11.024;2023-02-28T04:51:50;99187.19;;;-0.29;62.98
72587;BME280;60621;49.576;11.024;2023-02-28T04:52:51;99188.22;;;-0.30;62.45
72587;BME280;60621;49.576;11.024;2023-02-28T04:53:53;99184.84;;;-0.26;62.78
72587;BME280;60621;49.576;11.024;2023-02-28T04:54:55;99185.13;;;-0.27;62.55
72587;BME280;60621;49.576;11.024;2023-02-28T04:55:57;99186.94;;;-0.33;62.60
72587;BME280;60621;49.576;11.024;2023-02-28T04:56:59;99180.19;;;-0.23;62.43
72587;BME280;60621;49.576;11.024;2023-02-28T04:58:00;99184.84;;;-0.26;62.63
72587;BME280;60621;49.576;11.024;2023-02-28T04:59:02;99187.16;;;-0.24;62.52
72587;BME280;60621;49.576;11.024;2023-02-28T05:00:04;99181.47;;;-0.21;62.67
72587;BME280;60621;49.576;11.024;2023-02-28T05:01:23;99187.16;;;-0.24;62.36
72587;BME280;60621;49.576;11.024;2023-02-28T05:02:25;99192.34;;;-0.24;62.96
72587;BME280;60621;49.576;11.024;2023-02-28T05:03:27;99190.28;;;-0.17;62.76
72587;BME280;60621;49.576;11.024;2023-02-28T05:04:28;99187.94;;;-0.08;62.45
72587;BME280;60621;49.576;11.024;2023-02-28T05:05:30;99187.66;;;-0.02;61.95
72587;BME280;60621;49.576;11.024;2023-02-28T05:06:33;99184.03;;;-0.06;61.82
72587;BME280;60621;49.576;11.024;2023-02-28T05:07:34;99186.63;;;-0.06;62.03
72587;BME280;60621;49.576;11.024;2023-02-28T05:08:36;99197.56;;;-0.09;62.04
72587;BME280;60621;49.576;11.024;2023-02-28T05:09:38;99190.03;;;-0.15;62.36
72587;BME280;60621;49.576;11.024;2023-02-28T05:10:39;99195.97;;;-0.15;62.69
72587;BME280;60621;49.576;11.024;2023-02-28T05:11:41;99197.56;;;-0.19;62.32
72587;BME280;60621;49.576;11.024;2023-02-28T05:12:43;99191.06;;;-0.16;62.29
72587;BME280;60621;49.576;11.024;2023-02-28T05:13:44;99186.66;;;-0.16;62.59
72587;BME280;60621;49.576;11.024;2023-02-28T05:14:46;99195.47;;;-0.17;62.19
72587;BME280;60621;49.576;11.024;2023-02-28T05:15:47;99197.81;;;-0.15;62.20
72587;BME280;60621;49.576;11.024;2023-02-28T05:16:49;99193.66;;;-0.21;62.83
72587;BME280;60621;49.576;11.024;2023-02-28T05:17:51;99199.63;;;-0.11;62.59
72587;BME280;60621;49.576;11.024;2023-02-28T05:18:52;99194.97;;;-0.09;61.93
72587;BME280;60621;49.576;11.024;2023-02-28T05:19:55;99194.69;;;-0.07;62.16
72587;BME280;60621;49.576;11.024;2023-02-28T05:21:26;99191.84;;;-0.11;62.75
72587;BME280;60621;49.576;11.024;2023-02-28T05:22:28;99198.06;;;-0.07;62.26
72587;BME280;60621;49.576;11.024;2023-02-28T05:23:29;99197.56;;;-0.19;62.95
72587;BME280;60621;49.576;11.024;2023-02-28T05:24:31;99196.25;;;-0.16;62.72
72587;BME280;60621;49.576;11.024;2023-02-28T05:25:33;99196.25;;;-0.16;62.65
72587;BME280;60621;49.576;11.024;2023-02-28T05:26:36;99197.03;;;-0.21;62.95
72587;BME280;60621;49.576;11.024;2023-02-28T05:27:37;99192.09;;;-0.17;62.98
72587;BME280;60621;49.576;11.024;2023-02-28T05:28:39;99193.91;;;-0.13;62.52
72587;BME280;60621;49.576;11.024;2023-02-28T05:29:41;99192.88;;;-0.12;62.34
72587;BME280;60621;49.576;11.024;2023-02-28T05:30:46;99200.91;;;-0.08;62.78
72587;BME280;60621;49.576;11.024;2023-02-28T05:31:48;99197.81;;;-0.15;62.62
72587;BME280;60621;49.576;11.024;2023-02-28T05:32:51;99197.28;;;-0.17;62.59
72587;BME280;60621;49.576;11.024;2023-02-28T05:33:53;99195.47;;;-0.12;62.27
72587;BME280;60621;49.576;11.024;2023-02-28T05:34:54;99195.97;;;-0.10;62.38
72587;BME280;60621;49.576;11.024;2023-02-28T05:35:56;99200.41;;;-0.15;62.28
72587;BME280;60621;49.576;11.024;2023-02-28T05:36:57;99194.16;;;-0.14;62.18
72587;BME280;60621;49.576;11.024;2023-02-28T05:37:59;99201.44;;;-0.21;62.90
72587;BME280;60621;49.576;11.024;2023-02-28T05:39:00;99195.22;;;-0.26;62.97
72587;BME280;60621;49.576;11.024;2023-02-28T05:40:02;99205.34;;;-0.19;63.06
72587;BME280;60621;49.576;11.024;2023-02-28T05:41:08;99200.66;;;-0.12;62.23
72587;BME280;60621;49.576;11.024;2023-02-28T05:42:10;99198.06;;;-0.12;62.86
72587;BME280;60621;49.576;11.024;2023-02-28T05:43:11;99200.38;;;-0.05;62.37
72587;BME280;60621;49.576;11.024;2023-02-28T05:44:13;99200.16;;;-0.09;62.31
72587;BME280;60621;49.576;11.024;2023-02-28T05:45:14;99197.28;;;-0.12;62.64
72587;BME280;60621;49.576;11.024;2023-02-28T05:46:16;99200.16;;;-0.09;62.45
72587;BME280;60621;49.576;11.024;2023-02-28T05:47:17;99201.69;;;-0.13;62.59
72587;BME280;60621;49.576;11.024;2023-02-28T05:48:19;99205.59;;;-0.15;62.33
72587;BME280;60621;49.576;11.024;2023-02-28T05:49:20;99208.19;;;-0.15;62.79
72587;BME280;60621;49.576;11.024;2023-02-28T05:50:22;99209.72;;;-0.04;62.08
72587;BME280;60621;49.576;11.024;2023-02-28T05:51:23;99205.31;;;0.02;61.98
72587;BME280;60621;49.576;11.024;2023-02-28T05:52:25;99205.81;;;-0.02;62.43
72587;BME280;60621;49.576;11.024;2023-02-28T05:53:27;99202.19;;;-0.01;62.43
72587;BME280;60621;49.576;11.024;2023-02-28T05:54:28;99202.16;;;0.05;62.13
72587;BME280;60621;49.576;11.024;2023-02-28T05:55:30;99204.53;;;0.06;61.96
72587;BME280;60621;49.576;11.024;2023-02-28T05:56:32;99205.56;;;0.10;61.92
72587;BME280;60621;49.576;11.024;2023-02-28T05:57:35;99202.16;;;0.05;61.81
72587;BME280;60621;49.576;11.024;2023-02-28T05:58:37;99202.44;;;0.03;61.88
72587;BME280;60621;49.576;11.024;2023-02-28T05:59:38;99203.22;;;0.04;61.78
72587;BME280;60621;49.576;11.024;2023-02-28T06:00:41;99202.44;;;0.08;61.82
72587;BME280;60621;49.576;11.024;2023-02-28T06:01:45;99207.38;;;0.10;61.69
72587;BME280;60621;49.576;11.024;2023-02-28T06:02:49;99206.56;;;0.09;61.55
72587;BME280;60621;49.576;11.024;2023-02-28T06:03:52;99205.28;;;0.12;61.59
72587;BME280;60621;49.576;11.024;2023-02-28T06:04:54;99218.00;;;0.13;61.03
72587;BME280;60621;49.576;11.024;2023-02-28T06:05:55;99212.03;;;0.13;62.02